sensor_id;sensor_type;location;lat;lon;timestamp;pressure;altitude;pressure_sealevel;temperature;humidity
37892;BME280;45797;47.466;9.486;2022-12-18T00:02:21;96706.13;;;0.92;72.66
37892;BME280;45797;47.466;9.486;2022-12-18T00:07:22;96708.59;;;0.98;72.73
37892;BME280;45797;47.466;9.486;2022-12-18T00:12:24;96720.53;;;1.02;72.79
37892;BME280;45797;47.466;9.486;2022-12-18T00:17:28;96729.97;;;1.05;72.72
37892;BME280;45797;47.466;9.486;2022-12-18T00:22:30;96724.69;;;1.09;72.52
37892;BME280;45797;47.466;9.486;2022-12-18T00:27:33;96731.47;;;1.13;72.63
37892;BME280;45797;47.466;9.486;2022-12-18T00:32:33;96739.44;;;1.04;72.36
37892;BME280;45797;47.466;9.486;2022-12-18T00:37:35;96737.19;;;0.84;73.04
37892;BME280;45797;47.466;9.486;2022-12-18T00:42:36;96738.22;;;0.77;73.01
37892;BME280;45797;47.466;9.486;2022-12-18T00:47:56;96742.56;;;0.74;73.27
37892;BME280;45797;47.466;9.486;2022-12-18T00:52:59;96756.97;;;0.85;72.84
37892;BME280;45797;47.466;9.486;2022-12-18T00:58:01;96745.72;;;0.90;72.97
37892;BME280;45797;47.466;9.486;2022-12-18T01:03:03;96757.78;;;0.88;72.44
37892;BME280;45797;47.466;9.486;2022-12-18T01:08:05;96750.34;;;0.71;73.47
37892;BME280;45797;47.466;9.486;2022-12-18T01:13:07;96753.75;;;0.73;73.27
37892;BME280;45797;47.466;9.486;2022-12-18T01:18:09;96750.47;;;0.63;72.95
37892;BME280;45797;47.466;9.486;2022-12-18T01:23:21;96762.72;;;0.52;72.97
37892;BME280;45797;47.466;9.486;2022-12-18T01:28:23;96778.19;;;0.50;73.20
37892;BME280;45797;47.466;9.486;2022-12-18T01:33:23;96784.38;;;0.40;73.46
37892;BME280;45797;47.466;9.486;2022-12-18T01:38:24;96780.09;;;0.38;73.58
37892;BME280;45797;47.466;9.486;2022-12-18T01:43:55;96778.31;;;0.43;73.59
37892;BME280;45797;47.466;9.486;2022-12-18T01:49:01;96785.00;;;0.53;73.26
37892;BME280;45797;47.466;9.486;2022-12-18T01:54:03;96788.22;;;0.66;73.23
37892;BME280;45797;47.466;9.486;2022-12-18T01:59:13;96791.59;;;0.71;72.72
37892;BME280;45797;47.466;9.486;2022-12-18T02:04:23;96777.84;;;0.70;72.40
37892;BME280;45797;47.466;9.486;2022-12-18T02:09:35;96763.28;;;0.69;73.17
37892;BME280;45797;47.466;9.486;2022-12-18T02:14:56;96769.34;;;0.67;72.65
37892;BME280;45797;47.466;9.486;2022-12-18T02:26:11;96779.81;;;0.57;73.01
37892;BME280;45797;47.466;9.486;2022-12-18T02:31:02;96783.22;;;0.58;73.13
37892;BME280;45797;47.466;9.486;2022-12-18T02:36:09;96785.56;;;0.72;73.00
37892;BME280;45797;47.466;9.486;2022-12-18T02:41:14;96776.03;;;0.75;72.75
37892;BME280;45797;47.466;9.486;2022-12-18T02:46:34;96778.53;;;0.80;72.21
37892;BME280;45797;47.466;9.486;2022-12-18T02:57:20;96782.22;;;0.65;72.72
37892;BME280;45797;47.466;9.486;2022-12-18T03:02:31;96777.97;;;0.63;73.06
37892;BME280;45797;47.466;9.486;2022-12-18T03:13:13;96785.50;;;0.75;72.49
37892;BME280;45797;47.466;9.486;2022-12-18T03:18:21;96781.25;;;0.72;72.80
37892;BME280;45797;47.466;9.486;2022-12-18T03:23:30;96781.06;;;0.83;72.52
37892;BME280;45797;47.466;9.486;2022-12-18T03:28:35;96790.72;;;0.72;72.53
37892;BME280;45797;47.466;9.486;2022-12-18T03:33:54;96792.00;;;0.45;73.45
37892;BME280;45797;47.466;9.486;2022-12-18T03:39:03;96795.41;;;0.47;73.30
37892;BME280;45797;47.466;9.486;2022-12-18T03:49:48;96791.78;;;0.60;72.49
37892;BME280;45797;47.466;9.486;2022-12-18T03:54:52;96802.72;;;0.73;72.67
37892;BME280;45797;47.466;9.486;2022-12-18T04:00:03;96807.72;;;0.82;72.22
37892;BME280;45797;47.466;9.486;2022-12-18T04:05:16;96815.53;;;0.77;72.53
37892;BME280;45797;47.466;9.486;2022-12-18T04:10:19;96819.84;;;0.77;72.62
37892;BME280;45797;47.466;9.486;2022-12-18T04:15:22;96818.84;;;0.85;72.52
37892;BME280;45797;47.466;9.486;2022-12-18T04:20:28;96821.25;;;0.93;72.17
37892;BME280;45797;47.466;9.486;2022-12-18T04:25:35;96829.84;;;0.94;72.59
37892;BME280;45797;47.466;9.486;2022-12-18T04:30:44;96839.28;;;0.96;72.47
37892;BME280;45797;47.466;9.486;2022-12-18T04:35:48;96835.69;;;1.03;72.13
37892;BME280;45797;47.466;9.486;2022-12-18T04:40:49;96841.69;;;1.04;72.31
37892;BME280;45797;47.466;9.486;2022-12-18T04:46:08;96839.13;;;1.05;71.60
37892;BME280;45797;47.466;9.486;2022-12-18T04:51:10;96837.34;;;1.07;71.79
37892;BME280;45797;47.466;9.486;2022-12-18T04:56:15;96846.84;;;1.05;72.00
37892;BME280;45797;47.466;9.486;2022-12-18T05:01:18;96846.78;;;1.08;71.96
37892;BME280;45797;47.466;9.486;2022-12-18T05:06:25;96850.25;;;1.07;72.06
37892;BME280;45797;47.466;9.486;2022-12-18T05:11:38;96851.25;;;0.99;71.98
37892;BME280;45797;47.466;9.486;2022-12-18T05:16:39;96856.59;;;0.88;72.51
37892;BME280;45797;47.466;9.486;2022-12-18T05:21:58;96860.34;;;0.70;72.43
37892;BME280;45797;47.466;9.486;2022-12-18T05:27:08;96854.28;;;0.71;72.62
37892;BME280;45797;47.466;9.486;2022-12-18T05:32:16;96861.03;;;0.80;72.48
37892;BME280;45797;47.466;9.486;2022-12-18T05:37:17;96861.00;;;0.81;72.57
37892;BME280;45797;47.466;9.486;2022-12-18T05:42:18;96864.56;;;0.73;72.88
37892;BME280;45797;47.466;9.486;2022-12-18T05:47:20;96868.13;;;0.66;72.64
37892;BME280;45797;47.466;9.486;2022-12-18T05:52:22;96881.84;;;0.68;72.91
37892;BME280;45797;47.466;9.486;2022-12-18T05:57:24;96879.22;;;0.71;72.83
37892;BME280;45797;47.466;9.486;2022-12-18T06:02:25;96885.13;;;0.79;72.65
37892;BME280;45797;47.466;9.486;2022-12-18T06:07:26;96883.44;;;0.76;72.27
37892;BME280;45797;47.466;9.486;2022-12-18T06:12:27;96879.31;;;0.65;72.91
37892;BME280;45797;47.466;9.486;2022-12-18T06:17:40;96885.44;;;0.59;72.87
37892;BME280;45797;47.466;9.486;2022-12-18T06:22:43;96888.66;;;0.72;72.85
37892;BME280;45797;47.466;9.486;2022-12-18T06:27:49;96888.59;;;0.76;72.28
37892;BME280;45797;47.466;9.486;2022-12-18T06:32:51;96885.91;;;0.82;72.81
37892;BME280;45797;47.466;9.486;2022-12-18T06:37:54;96875.47;;;0.90;72.93
37892;BME280;45797;47.466;9.486;2022-12-18T06:42:55;96879.84;;;0.85;72.72
37892;BME280;45797;47.466;9.486;2022-12-18T06:47:57;96887.88;;;0.68;72.42
37892;BME280;45797;47.466;9.486;2022-12-18T06:53:09;96891.34;;;0.64;72.78
37892;BME280;45797;47.466;9.486;2022-12-18T06:58:10;96909.28;;;0.72;72.84
37892;BME280;45797;47.466;9.486;2022-12-18T07:03:18;96914.44;;;0.72;73.04
37892;BME280;45797;47.466;9.486;2022-12-18T07:08:19;96929.78;;;0.79;72.91
37892;BME280;45797;47.466;9.486;2022-12-18T07:13:20;96927.34;;;0.70;72.49
37892;BME280;45797;47.466;9.486;2022-12-18T07:18:31;96943.75;;;0.65;72.54
37892;BME280;45797;47.466;9.486;2022-12-18T07:23:33;96955.06;;;0.53;73.32
37892;BME280;45797;47.466;9.486;2022-12-18T07:28:38;96952.44;;;0.56;73.09
37892;BME280;45797;47.466;9.486;2022-12-18T07:33:39;96955.97;;;0.50;72.84
37892;BME280;45797;47.466;9.486;2022-12-18T07:38:42;96962.84;;;0.51;72.81
37892;BME280;45797;47.466;9.486;2022-12-18T07:43:42;96973.94;;;0.55;73.06
37892;BME280;45797;47.466;9.486;2022-12-18T07:48:50;96984.16;;;0.63;72.54
37892;BME280;45797;47.466;9.486;2022-12-18T07:53:56;96989.13;;;0.76;72.87
37892;BME280;45797;47.466;9.486;2022-12-18T07:58:59;96986.56;;;0.76;72.72
37892;BME280;45797;47.466;9.486;2022-12-18T08:04:00;96980.59;;;0.71;72.65
37892;BME280;45797;47.466;9.486;2022-12-18T08:09:01;96978.84;;;0.73;72.64
37892;BME280;45797;47.466;9.486;2022-12-18T08:14:03;96984.91;;;0.71;72.61
37892;BME280;45797;47.466;9.486;2022-12-18T08:19:04;96984.91;;;0.71;72.87
37892;BME280;45797;47.466;9.486;2022-12-18T08:24:05;96972.81;;;0.76;72.56
37892;BME280;45797;47.466;9.486;2022-12-18T08:29:05;96977.16;;;0.71;72.74
37892;BME280;45797;47.466;9.486;2022-12-18T08:34:06;96978.97;;;0.64;73.02
37892;BME280;45797;47.466;9.486;2022-12-18T08:39:06;96982.38;;;0.68;72.70
37892;BME280;45797;47.466;9.486;2022-12-18T08:44:09;96972.13;;;0.63;72.89
37892;BME280;45797;47.466;9.486;2022-12-18T08:49:27;96979.66;;;0.77;72.65
37892;BME280;45797;47.466;9.486;2022-12-18T08:54:28;96985.31;;;1.00;72.41
37892;BME280;45797;47.466;9.486;2022-12-18T08:59:29;96987.72;;;1.12;72.04
37892;BME280;45797;47.466;9.486;2022-12-18T09:04:30;96990.19;;;1.19;71.75
37892;BME280;45797;47.466;9.486;2022-12-18T09:09:35;97001.19;;;1.30;71.33
37892;BME280;45797;47.466;9.486;2022-12-18T09:14:46;97007.97;;;1.37;71.44
37892;BME280;45797;47.466;9.486;2022-12-18T09:19:49;96993.19;;;1.47;71.31
37892;BME280;45797;47.466;9.486;2022-12-18T09:24:49;96977.56;;;1.54;71.61
37892;BME280;45797;47.466;9.486;2022-12-18T09:29:49;96974.78;;;1.66;71.14
37892;BME280;45797;47.466;9.486;2022-12-18T09:34:50;96975.38;;;1.79;71.17
37892;BME280;45797;47.466;9.486;2022-12-18T09:39:51;96974.50;;;1.82;71.01
37892;BME280;45797;47.466;9.486;2022-12-18T09:44:59;96978.66;;;1.89;70.21
37892;BME280;45797;47.466;9.486;2022-12-18T09:50:12;96978.63;;;1.92;70.70
37892;BME280;45797;47.466;9.486;2022-12-18T09:55:33;96976.97;;;1.88;70.40
37892;BME280;45797;47.466;9.486;2022-12-18T10:00:41;96969.88;;;1.99;70.60
37892;BME280;45797;47.466;9.486;2022-12-18T10:22:21;96967.75;;;2.19;70.09
37892;BME280;45797;47.466;9.486;2022-12-18T10:27:26;96972.75;;;2.28;69.95
37892;BME280;45797;47.466;9.486;2022-12-18T10:32:30;96977.84;;;2.32;70.44
37892;BME280;45797;47.466;9.486;2022-12-18T10:38:06;96976.94;;;2.33;70.14
37892;BME280;45797;47.466;9.486;2022-12-18T10:43:20;96976.88;;;2.37;70.23
37892;BME280;45797;47.466;9.486;2022-12-18T10:48:23;96970.84;;;2.35;70.19
37892;BME280;45797;47.466;9.486;2022-12-18T10:53:28;96985.50;;;2.35;70.07
37892;BME280;45797;47.466;9.486;2022-12-18T11:09:09;96987.81;;;2.05;70.22
37892;BME280;45797;47.466;9.486;2022-12-18T11:19:52;96982.41;;;2.17;70.55
37892;BME280;45797;47.466;9.486;2022-12-18T11:25:05;96981.38;;;2.27;69.68
37892;BME280;45797;47.466;9.486;2022-12-18T11:30:20;96979.38;;;2.40;69.56
37892;BME280;45797;47.466;9.486;2022-12-18T11:35:40;96976.66;;;2.46;69.86
37892;BME280;45797;47.466;9.486;2022-12-18T11:40:44;96967.72;;;2.61;69.72
37892;BME280;45797;47.466;9.486;2022-12-18T11:46:51;96950.25;;;2.72;69.28
37892;BME280;45797;47.466;9.486;2022-12-18T11:51:43;96958.59;;;2.83;68.72
37892;BME280;45797;47.466;9.486;2022-12-18T11:56:57;96950.13;;;2.78;69.50
37892;BME280;45797;47.466;9.486;2022-12-18T12:13:25;96919.09;;;3.12;68.76
37892;BME280;45797;47.466;9.486;2022-12-18T12:29:37;96930.19;;;2.82;69.64
37892;BME280;45797;47.466;9.486;2022-12-18T12:40:24;96896.88;;;3.05;69.27
37892;BME280;45797;47.466;9.486;2022-12-18T12:45:34;96904.59;;;3.07;69.08
37892;BME280;45797;47.466;9.486;2022-12-18T12:50:38;96899.97;;;3.20;69.33
37892;BME280;45797;47.466;9.486;2022-12-18T12:55:42;96902.19;;;2.99;69.39
37892;BME280;45797;47.466;9.486;2022-12-18T13:01:00;96903.59;;;2.77;69.16
37892;BME280;45797;47.466;9.486;2022-12-18T13:06:15;96891.13;;;2.55;69.97
37892;BME280;45797;47.466;9.486;2022-12-18T13:11:37;96887.72;;;2.55;70.00
37892;BME280;45797;47.466;9.486;2022-12-18T13:22:23;96909.63;;;2.77;69.74
37892;BME280;45797;47.466;9.486;2022-12-18T13:27:51;96912.53;;;2.62;69.91
37892;BME280;45797;47.466;9.486;2022-12-18T13:38:33;96921.06;;;2.67;69.94
37892;BME280;45797;47.466;9.486;2022-12-18T13:44:30;96907.16;;;2.71;69.55
37892;BME280;45797;47.466;9.486;2022-12-18T13:49:31;96896.75;;;2.74;69.42
37892;BME280;45797;47.466;9.486;2022-12-18T13:54:42;96905.69;;;2.61;70.20
37892;BME280;45797;47.466;9.486;2022-12-18T13:59:46;96921.72;;;2.37;69.98
37892;BME280;45797;47.466;9.486;2022-12-18T14:04:49;96921.31;;;2.15;71.02
37892;BME280;45797;47.466;9.486;2022-12-18T14:09:54;96920.56;;;2.11;71.02
37892;BME280;45797;47.466;9.486;2022-12-18T14:14:58;96916.88;;;2.21;70.65
37892;BME280;45797;47.466;9.486;2022-12-18T14:19:59;96915.03;;;2.26;70.12
37892;BME280;45797;47.466;9.486;2022-12-18T14:25:18;96920.44;;;2.16;70.23
37892;BME280;45797;47.466;9.486;2022-12-18T14:30:37;96935.16;;;2.12;70.73
37892;BME280;45797;47.466;9.486;2022-12-18T14:35:40;96917.41;;;1.95;70.86
37892;BME280;45797;47.466;9.486;2022-12-18T14:40:43;96927.19;;;1.81;71.09
37892;BME280;45797;47.466;9.486;2022-12-18T14:45:45;96927.16;;;1.83;71.09
37892;BME280;45797;47.466;9.486;2022-12-18T14:51:05;96921.84;;;1.90;70.99
37892;BME280;45797;47.466;9.486;2022-12-18T14:56:26;96923.69;;;1.84;70.68
37892;BME280;45797;47.466;9.486;2022-12-18T15:02:43;96925.41;;;1.83;71.25
37892;BME280;45797;47.466;9.486;2022-12-18T15:07:47;96935.16;;;1.67;70.76
37892;BME280;45797;47.466;9.486;2022-12-18T15:18:05;96927.53;;;1.63;70.96
37892;BME280;45797;47.466;9.486;2022-12-18T15:28:25;96925.69;;;1.68;71.01
37892;BME280;45797;47.466;9.486;2022-12-18T15:38:59;96943.63;;;1.28;71.51
37892;BME280;45797;47.466;9.486;2022-12-18T15:44:00;96949.59;;;1.30;71.84
37892;BME280;45797;47.466;9.486;2022-12-18T15:49:02;96956.28;;;1.43;71.44
37892;BME280;45797;47.466;9.486;2022-12-18T15:54:05;96938.97;;;1.48;71.04
37892;BME280;45797;47.466;9.486;2022-12-18T15:59:18;96940.66;;;1.49;71.31
37892;BME280;45797;47.466;9.486;2022-12-18T16:04:21;96931.97;;;1.55;71.17
37892;BME280;45797;47.466;9.486;2022-12-18T16:09:23;96927.69;;;1.54;71.00
37892;BME280;45797;47.466;9.486;2022-12-18T16:14:26;96919.13;;;1.50;70.94
37892;BME280;45797;47.466;9.486;2022-12-18T16:19:35;96919.28;;;1.41;70.61
37892;BME280;45797;47.466;9.486;2022-12-18T16:24:37;96922.72;;;1.41;71.20
37892;BME280;45797;47.466;9.486;2022-12-18T16:29:38;96922.00;;;1.35;71.66
37892;BME280;45797;47.466;9.486;2022-12-18T16:34:40;96907.41;;;1.34;71.86
37892;BME280;45797;47.466;9.486;2022-12-18T16:39:42;96909.91;;;1.37;70.94
37892;BME280;45797;47.466;9.486;2022-12-18T16:44:45;96919.28;;;1.41;71.56
37892;BME280;45797;47.466;9.486;2022-12-18T16:49:45;96918.47;;;1.39;71.27
37892;BME280;45797;47.466;9.486;2022-12-18T16:54:57;96920.28;;;1.35;70.90
37892;BME280;45797;47.466;9.486;2022-12-18T16:59:58;96911.72;;;1.32;71.02
37892;BME280;45797;47.466;9.486;2022-12-18T17:05:00;96912.53;;;1.35;71.09
37892;BME280;45797;47.466;9.486;2022-12-18T17:10:02;96909.09;;;1.35;70.84
37892;BME280;45797;47.466;9.486;2022-12-18T17:15:07;96901.41;;;1.32;71.07
37892;BME280;45797;47.466;9.486;2022-12-18T17:20:08;96904.97;;;1.25;71.49
37892;BME280;45797;47.466;9.486;2022-12-18T17:25:11;96917.03;;;1.23;71.18
37892;BME280;45797;47.466;9.486;2022-12-18T17:30:13;96917.16;;;1.17;71.47
37892;BME280;45797;47.466;9.486;2022-12-18T17:35:14;96915.47;;;1.16;71.75
37892;BME280;45797;47.466;9.486;2022-12-18T17:40:15;96919.75;;;1.15;71.26
37892;BME280;45797;47.466;9.486;2022-12-18T17:45:16;96930.06;;;1.17;71.46
37892;BME280;45797;47.466;9.486;2022-12-18T17:50:16;96914.06;;;0.95;71.17
37892;BME280;45797;47.466;9.486;2022-12-18T17:55:18;96917.56;;;0.91;72.22
37892;BME280;45797;47.466;9.486;2022-12-18T18:00:19;96914.94;;;0.95;71.34
37892;BME280;45797;47.466;9.486;2022-12-18T18:05:27;96904.53;;;1.00;71.52
37892;BME280;45797;47.466;9.486;2022-12-18T18:10:28;96892.44;;;1.05;71.08
37892;BME280;45797;47.466;9.486;2022-12-18T18:15:28;96884.59;;;1.09;70.75
37892;BME280;45797;47.466;9.486;2022-12-18T18:20:28;96886.28;;;1.10;70.98
37892;BME280;45797;47.466;9.486;2022-12-18T18:25:29;96887.94;;;1.16;71.18
37892;BME280;45797;47.466;9.486;2022-12-18T18:30:37;96887.91;;;1.18;71.43
37892;BME280;45797;47.466;9.486;2022-12-18T18:35:43;96892.16;;;1.20;71.19
37892;BME280;45797;47.466;9.486;2022-12-18T18:40:44;96902.41;;;1.23;71.31
37892;BME280;45797;47.466;9.486;2022-12-18T18:45:53;96908.38;;;1.27;71.21
37892;BME280;45797;47.466;9.486;2022-12-18T18:50:59;96895.47;;;1.27;70.91
37892;BME280;45797;47.466;9.486;2022-12-18T18:56:00;96899.81;;;1.25;71.22
37892;BME280;45797;47.466;9.486;2022-12-18T19:01:03;96888.53;;;1.30;70.66
37892;BME280;45797;47.466;9.486;2022-12-18T19:06:06;96883.50;;;1.24;71.04
37892;BME280;45797;47.466;9.486;2022-12-18T19:11:08;96876.63;;;1.22;71.00
37892;BME280;45797;47.466;9.486;2022-12-18T19:16:31;96884.34;;;1.25;71.74
37892;BME280;45797;47.466;9.486;2022-12-18T19:21:32;96884.34;;;1.25;71.71
37892;BME280;45797;47.466;9.486;2022-12-18T19:26:34;96900.53;;;1.33;71.36
37892;BME280;45797;47.466;9.486;2022-12-18T19:31:35;96893.66;;;1.33;71.08
37892;BME280;45797;47.466;9.486;2022-12-18T19:36:39;96886.81;;;1.29;71.25
37892;BME280;45797;47.466;9.486;2022-12-18T19:41:40;96899.66;;;1.34;71.22
37892;BME280;45797;47.466;9.486;2022-12-18T19:46:54;96909.91;;;1.37;70.57
37892;BME280;45797;47.466;9.486;2022-12-18T19:51:54;96890.03;;;1.43;71.03
37892;BME280;45797;47.466;9.486;2022-12-18T19:56:57;96865.88;;;1.46;70.46
37892;BME280;45797;47.466;9.486;2022-12-18T20:01:57;96866.81;;;1.42;71.26
37892;BME280;45797;47.466;9.486;2022-12-18T20:06:59;96895.19;;;1.42;71.01
37892;BME280;45797;47.466;9.486;2022-12-18T20:12:02;96898.47;;;1.50;71.32
37892;BME280;45797;47.466;9.486;2022-12-18T20:17:03;96880.38;;;1.53;71.16
37892;BME280;45797;47.466;9.486;2022-12-18T20:22:05;96865.78;;;1.51;70.83
37892;BME280;45797;47.466;9.486;2022-12-18T20:27:09;96866.63;;;1.51;70.91
37892;BME280;45797;47.466;9.486;2022-12-18T20:32:10;96851.16;;;1.53;71.20
37892;BME280;45797;47.466;9.486;2022-12-18T20:37:12;96853.72;;;1.53;71.06
37892;BME280;45797;47.466;9.486;2022-12-18T20:42:12;96838.16;;;1.56;70.88
37892;BME280;45797;47.466;9.486;2022-12-18T20:47:15;96829.66;;;1.52;71.00
37892;BME280;45797;47.466;9.486;2022-12-18T20:52:29;96823.63;;;1.52;70.86
37892;BME280;45797;47.466;9.486;2022-12-18T20:57:35;96820.84;;;1.61;70.95
37892;BME280;45797;47.466;9.486;2022-12-18T21:02:38;96838.81;;;1.67;71.01
37892;BME280;45797;47.466;9.486;2022-12-18T21:07:39;96850.84;;;1.66;71.36
37892;BME280;45797;47.466;9.486;2022-12-18T21:13:05;96843.13;;;1.66;71.15
37892;BME280;45797;47.466;9.486;2022-12-18T21:18:17;96845.63;;;1.69;71.35
37892;BME280;45797;47.466;9.486;2022-12-18T21:23:28;96844.84;;;1.66;70.65
37892;BME280;45797;47.466;9.486;2022-12-18T21:28:29;96839.50;;;1.75;71.27
37892;BME280;45797;47.466;9.486;2022-12-18T21:33:29;96832.56;;;1.77;71.10
37892;BME280;45797;47.466;9.486;2022-12-18T21:38:38;96807.50;;;1.82;70.55
37892;BME280;45797;47.466;9.486;2022-12-18T21:43:38;96832.53;;;1.79;70.78
37892;BME280;45797;47.466;9.486;2022-12-18T21:48:58;96833.34;;;1.82;71.30
37892;BME280;45797;47.466;9.486;2022-12-18T21:53:58;96815.97;;;1.89;71.16
37892;BME280;45797;47.466;9.486;2022-12-18T21:58:59;96833.47;;;1.75;71.04
37892;BME280;45797;47.466;9.486;2022-12-18T22:04:01;96830.09;;;1.73;71.67
37892;BME280;45797;47.466;9.486;2022-12-18T22:09:14;96813.75;;;1.72;71.57
37892;BME280;45797;47.466;9.486;2022-12-18T22:14:16;96818.06;;;1.71;71.24
37892;BME280;45797;47.466;9.486;2022-12-18T22:19:18;96831.88;;;1.69;71.13
37892;BME280;45797;47.466;9.486;2022-12-18T22:24:22;96843.81;;;1.75;71.36
37892;BME280;45797;47.466;9.486;2022-12-18T22:29:24;96849.72;;;1.81;71.16
37892;BME280;45797;47.466;9.486;2022-12-18T22:34:43;96860.81;;;1.85;70.98
37892;BME280;45797;47.466;9.486;2022-12-18T22:39:45;96846.94;;;1.90;71.52
37892;BME280;45797;47.466;9.486;2022-12-18T22:44:52;96832.25;;;1.92;70.70
37892;BME280;45797;47.466;9.486;2022-12-18T22:49:55;96821.00;;;1.95;71.01
37892;BME280;45797;47.466;9.486;2022-12-18T22:55:04;96809.41;;;1.74;71.04
37892;BME280;45797;47.466;9.486;2022-12-18T23:00:06;96820.06;;;1.57;72.29
37892;BME280;45797;47.466;9.486;2022-12-18T23:05:08;96822.75;;;1.51;71.97
37892;BME280;45797;47.466;9.486;2022-12-18T23:10:10;96832.25;;;1.49;72.52
37892;BME280;45797;47.466;9.486;2022-12-18T23:15:12;96821.91;;;1.52;72.16
37892;BME280;45797;47.466;9.486;2022-12-18T23:20:17;96845.28;;;1.45;72.17
37892;BME280;45797;47.466;9.486;2022-12-18T23:25:33;96834.31;;;1.32;72.65
37892;BME280;45797;47.466;9.486;2022-12-18T23:30:36;96831.38;;;1.52;72.36
37892;BME280;45797;47.466;9.486;2022-12-18T23:35:36;96811.44;;;1.58;72.22
37892;BME280;45797;47.466;9.486;2022-12-18T23:40:39;96808.66;;;1.67;71.93
37892;BME280;45797;47.466;9.486;2022-12-18T23:45:39;96808.44;;;1.78;71.77
37892;BME280;45797;47.466;9.486;2022-12-18T23:50:39;96775.59;;;1.85;71.66
37892;BME280;45797;47.466;9.486;2022-12-18T23:55:46;96816.06;;;1.84;71.37
